sensor_id;sensor_type;location;lat;lon;timestamp;temperature;humidity
23560;DHT22;11958;50.836;4.438;2023-08-12T00:01:14;21.60;87.20
23560;DHT22;11958;50.836;4.438;2023-08-12T00:03:39;21.50;87.80
23560;DHT22;11958;50.836;4.438;2023-08-12T00:06:05;21.50;87.50
23560;DHT22;11958;50.836;4.438;2023-08-12T00:08:31;21.50;88.00
23560;DHT22;11958;50.836;4.438;2023-08-12T00:10:57;21.20;88.50
23560;DHT22;11958;50.836;4.438;2023-08-12T00:13:22;21.30;89.20
23560;DHT22;11958;50.836;4.438;2023-08-12T00:15:48;21.50;88.20
23560;DHT22;11958;50.836;4.438;2023-08-12T00:18:14;21.80;88.00
23560;DHT22;11958;50.836;4.438;2023-08-12T00:20:41;21.70;86.80
23560;DHT22;11958;50.836;4.438;2023-08-12T00:23:08;21.70;86.70
23560;DHT22;11958;50.836;4.438;2023-08-12T00:25:33;21.40;87.80
23560;DHT22;11958;50.836;4.438;2023-08-12T00:27:59;21.30;88.50
23560;DHT22;11958;50.836;4.438;2023-08-12T00:30:25;21.60;87.60
23560;DHT22;11958;50.836;4.438;2023-08-12T00:32:50;21.50;87.60
23560;DHT22;11958;50.836;4.438;2023-08-12T00:35:16;21.50;88.00
23560;DHT22;11958;50.836;4.438;2023-08-12T00:37:42;21.30;87.90
23560;DHT22;11958;50.836;4.438;2023-08-12T00:40:08;21.50;88.50
23560;DHT22;11958;50.836;4.438;2023-08-12T00:42:34;21.60;87.90
23560;DHT22;11958;50.836;4.438;2023-08-12T00:44:59;21.80;87.60
23560;DHT22;11958;50.836;4.438;2023-08-12T00:47:28;21.60;87.50
23560;DHT22;11958;50.836;4.438;2023-08-12T00:49:54;21.50;87.60
23560;DHT22;11958;50.836;4.438;2023-08-12T00:52:22;21.40;88.70
23560;DHT22;11958;50.836;4.438;2023-08-12T00:54:48;21.70;87.10
23560;DHT22;11958;50.836;4.438;2023-08-12T00:57:14;21.50;88.20
23560;DHT22;11958;50.836;4.438;2023-08-12T00:59:41;21.50;88.40
23560;DHT22;11958;50.836;4.438;2023-08-12T01:02:11;21.40;87.80
23560;DHT22;11958;50.836;4.438;2023-08-12T01:04:37;21.70;87.50
23560;DHT22;11958;50.836;4.438;2023-08-12T01:07:03;21.50;87.80
23560;DHT22;11958;50.836;4.438;2023-08-12T01:09:29;21.30;88.30
23560;DHT22;11958;50.836;4.438;2023-08-12T01:12:16;21.00;89.50
23560;DHT22;11958;50.836;4.438;2023-08-12T01:15:14;21.10;89.60
23560;DHT22;11958;50.836;4.438;2023-08-12T01:17:42;21.10;89.50
23560;DHT22;11958;50.836;4.438;2023-08-12T01:20:08;21.30;89.10
23560;DHT22;11958;50.836;4.438;2023-08-12T01:22:37;21.10;89.10
23560;DHT22;11958;50.836;4.438;2023-08-12T01:25:07;21.20;89.80
23560;DHT22;11958;50.836;4.438;2023-08-12T01:27:35;21.10;89.30
23560;DHT22;11958;50.836;4.438;2023-08-12T01:30:00;21.40;88.90
23560;DHT22;11958;50.836;4.438;2023-08-12T01:32:37;21.20;89.10
23560;DHT22;11958;50.836;4.438;2023-08-12T01:35:25;21.20;89.50
23560;DHT22;11958;50.836;4.438;2023-08-12T01:37:53;21.00;89.70
23560;DHT22;11958;50.836;4.438;2023-08-12T01:40:20;21.20;89.80
23560;DHT22;11958;50.836;4.438;2023-08-12T01:42:46;21.50;88.60
23560;DHT22;11958;50.836;4.438;2023-08-12T01:45:13;21.40;87.90
23560;DHT22;11958;50.836;4.438;2023-08-12T01:47:39;21.30;87.90
23560;DHT22;11958;50.836;4.438;2023-08-12T01:50:08;21.20;89.40
23560;DHT22;11958;50.836;4.438;2023-08-12T01:52:35;21.20;89.00
23560;DHT22;11958;50.836;4.438;2023-08-12T01:57:26;21.20;89.30
23560;DHT22;11958;50.836;4.438;2023-08-12T01:59:57;21.10;89.50
23560;DHT22;11958;50.836;4.438;2023-08-12T02:02:23;21.00;90.10
23560;DHT22;11958;50.836;4.438;2023-08-12T02:04:48;21.00;90.00
23560;DHT22;11958;50.836;4.438;2023-08-12T02:07:14;21.00;90.20
23560;DHT22;11958;50.836;4.438;2023-08-12T02:09:40;21.00;90.70
23560;DHT22;11958;50.836;4.438;2023-08-12T02:12:06;20.90;90.30
23560;DHT22;11958;50.836;4.438;2023-08-12T02:14:31;20.80;92.20
23560;DHT22;11958;50.836;4.438;2023-08-12T02:16:57;21.00;90.90
23560;DHT22;11958;50.836;4.438;2023-08-12T02:19:23;21.40;89.80
23560;DHT22;11958;50.836;4.438;2023-08-12T02:21:48;21.20;89.50
23560;DHT22;11958;50.836;4.438;2023-08-12T02:24:14;21.00;90.50
23560;DHT22;11958;50.836;4.438;2023-08-12T02:26:40;20.90;92.30
23560;DHT22;11958;50.836;4.438;2023-08-12T02:29:06;20.90;92.40
23560;DHT22;11958;50.836;4.438;2023-08-12T02:31:31;21.10;90.90
23560;DHT22;11958;50.836;4.438;2023-08-12T02:33:57;21.20;90.00
23560;DHT22;11958;50.836;4.438;2023-08-12T02:36:23;20.90;91.30
23560;DHT22;11958;50.836;4.438;2023-08-12T02:38:49;21.30;90.00
23560;DHT22;11958;50.836;4.438;2023-08-12T02:41:14;21.00;90.80
23560;DHT22;11958;50.836;4.438;2023-08-12T02:43:40;21.10;90.90
23560;DHT22;11958;50.836;4.438;2023-08-12T02:46:06;21.10;90.60
23560;DHT22;11958;50.836;4.438;2023-08-12T02:48:32;21.00;91.30
23560;DHT22;11958;50.836;4.438;2023-08-12T02:50:58;21.00;91.20
23560;DHT22;11958;50.836;4.438;2023-08-12T02:53:23;21.30;91.00
23560;DHT22;11958;50.836;4.438;2023-08-12T02:55:49;21.10;90.50
23560;DHT22;11958;50.836;4.438;2023-08-12T02:58:15;21.00;91.10
23560;DHT22;11958;50.836;4.438;2023-08-12T03:00:43;20.80;93.00
23560;DHT22;11958;50.836;4.438;2023-08-12T03:03:09;20.70;94.00
23560;DHT22;11958;50.836;4.438;2023-08-12T03:05:35;21.00;92.90
23560;DHT22;11958;50.836;4.438;2023-08-12T03:08:01;21.20;92.20
23560;DHT22;11958;50.836;4.438;2023-08-12T03:10:29;21.20;90.60
23560;DHT22;11958;50.836;4.438;2023-08-12T03:12:55;21.10;90.90
23560;DHT22;11958;50.836;4.438;2023-08-12T03:15:20;20.90;92.10
23560;DHT22;11958;50.836;4.438;2023-08-12T03:17:46;20.90;92.40
23560;DHT22;11958;50.836;4.438;2023-08-12T03:20:12;20.90;92.50
23560;DHT22;11958;50.836;4.438;2023-08-12T03:22:38;21.00;92.30
23560;DHT22;11958;50.836;4.438;2023-08-12T03:25:04;21.00;92.10
23560;DHT22;11958;50.836;4.438;2023-08-12T03:27:30;21.10;92.80
23560;DHT22;11958;50.836;4.438;2023-08-12T03:29:56;21.10;91.80
23560;DHT22;11958;50.836;4.438;2023-08-12T03:32:22;21.10;91.70
23560;DHT22;11958;50.836;4.438;2023-08-12T03:34:48;21.10;91.80
23560;DHT22;11958;50.836;4.438;2023-08-12T03:37:13;21.10;92.00
23560;DHT22;11958;50.836;4.438;2023-08-12T03:39:39;21.10;91.40
23560;DHT22;11958;50.836;4.438;2023-08-12T03:42:05;21.30;92.10
23560;DHT22;11958;50.836;4.438;2023-08-12T03:44:31;21.20;92.00
23560;DHT22;11958;50.836;4.438;2023-08-12T03:46:56;21.10;92.30
23560;DHT22;11958;50.836;4.438;2023-08-12T03:49:22;21.30;91.60
23560;DHT22;11958;50.836;4.438;2023-08-12T03:51:47;21.20;91.50
23560;DHT22;11958;50.836;4.438;2023-08-12T03:54:13;21.00;92.40
23560;DHT22;11958;50.836;4.438;2023-08-12T03:56:39;21.50;91.10
23560;DHT22;11958;50.836;4.438;2023-08-12T03:59:05;21.10;92.10
23560;DHT22;11958;50.836;4.438;2023-08-12T04:01:30;21.20;91.70
23560;DHT22;11958;50.836;4.438;2023-08-12T04:03:56;21.30;91.40
23560;DHT22;11958;50.836;4.438;2023-08-12T04:06:22;21.20;92.00
23560;DHT22;11958;50.836;4.438;2023-08-12T04:08:47;21.30;92.00
23560;DHT22;11958;50.836;4.438;2023-08-12T04:11:13;21.20;91.80
23560;DHT22;11958;50.836;4.438;2023-08-12T04:13:39;21.10;92.40
23560;DHT22;11958;50.836;4.438;2023-08-12T04:16:04;20.90;95.30
23560;DHT22;11958;50.836;4.438;2023-08-12T04:18:30;20.90;93.90
23560;DHT22;11958;50.836;4.438;2023-08-12T04:20:55;21.00;93.80
23560;DHT22;11958;50.836;4.438;2023-08-12T04:23:21;20.80;95.10
23560;DHT22;11958;50.836;4.438;2023-08-12T04:25:48;20.80;95.90
23560;DHT22;11958;50.836;4.438;2023-08-12T04:28:14;20.70;96.10
23560;DHT22;11958;50.836;4.438;2023-08-12T04:30:42;20.70;96.70
23560;DHT22;11958;50.836;4.438;2023-08-12T04:33:08;20.80;96.60
23560;DHT22;11958;50.836;4.438;2023-08-12T04:35:34;20.90;96.10
23560;DHT22;11958;50.836;4.438;2023-08-12T04:38:00;20.70;96.30
23560;DHT22;11958;50.836;4.438;2023-08-12T04:40:25;20.70;96.80
23560;DHT22;11958;50.836;4.438;2023-08-12T04:42:51;20.60;97.50
23560;DHT22;11958;50.836;4.438;2023-08-12T04:45:17;20.70;97.70
23560;DHT22;11958;50.836;4.438;2023-08-12T04:47:42;20.80;96.40
23560;DHT22;11958;50.836;4.438;2023-08-12T04:50:08;20.50;97.20
23560;DHT22;11958;50.836;4.438;2023-08-12T04:52:34;20.60;97.60
23560;DHT22;11958;50.836;4.438;2023-08-12T04:55:00;20.50;97.80
23560;DHT22;11958;50.836;4.438;2023-08-12T04:57:25;20.50;98.00
23560;DHT22;11958;50.836;4.438;2023-08-12T04:59:53;20.80;96.90
23560;DHT22;11958;50.836;4.438;2023-08-12T05:02:19;20.80;97.20
23560;DHT22;11958;50.836;4.438;2023-08-12T05:04:49;20.60;97.80
23560;DHT22;11958;50.836;4.438;2023-08-12T05:07:15;20.50;97.90
23560;DHT22;11958;50.836;4.438;2023-08-12T05:09:41;20.50;98.10
23560;DHT22;11958;50.836;4.438;2023-08-12T05:12:10;20.60;97.80
23560;DHT22;11958;50.836;4.438;2023-08-12T05:14:35;20.70;97.90
23560;DHT22;11958;50.836;4.438;2023-08-12T05:17:01;20.60;98.20
23560;DHT22;11958;50.836;4.438;2023-08-12T05:19:27;20.40;98.40
23560;DHT22;11958;50.836;4.438;2023-08-12T05:21:52;20.40;98.80
23560;DHT22;11958;50.836;4.438;2023-08-12T05:24:18;20.70;98.40
23560;DHT22;11958;50.836;4.438;2023-08-12T05:26:43;20.60;98.40
23560;DHT22;11958;50.836;4.438;2023-08-12T05:29:09;20.70;98.40
23560;DHT22;11958;50.836;4.438;2023-08-12T05:31:35;21.00;94.90
23560;DHT22;11958;50.836;4.438;2023-08-12T05:34:01;20.80;96.40
23560;DHT22;11958;50.836;4.438;2023-08-12T05:36:26;20.90;96.90
23560;DHT22;11958;50.836;4.438;2023-08-12T05:38:52;20.60;97.90
23560;DHT22;11958;50.836;4.438;2023-08-12T05:41:18;20.60;98.20
23560;DHT22;11958;50.836;4.438;2023-08-12T05:43:43;20.70;98.80
23560;DHT22;11958;50.836;4.438;2023-08-12T05:46:09;20.80;98.10
23560;DHT22;11958;50.836;4.438;2023-08-12T05:48:35;20.70;97.50
23560;DHT22;11958;50.836;4.438;2023-08-12T05:51:00;20.90;96.40
23560;DHT22;11958;50.836;4.438;2023-08-12T05:53:29;21.00;95.40
23560;DHT22;11958;50.836;4.438;2023-08-12T05:55:54;20.70;97.40
23560;DHT22;11958;50.836;4.438;2023-08-12T05:58:20;20.80;97.80
23560;DHT22;11958;50.836;4.438;2023-08-12T06:00:46;20.40;98.00
23560;DHT22;11958;50.836;4.438;2023-08-12T06:03:12;20.50;98.50
23560;DHT22;11958;50.836;4.438;2023-08-12T06:05:38;20.80;99.20
23560;DHT22;11958;50.836;4.438;2023-08-12T06:08:04;20.60;98.10
23560;DHT22;11958;50.836;4.438;2023-08-12T06:10:29;20.80;98.00
23560;DHT22;11958;50.836;4.438;2023-08-12T06:12:55;21.00;95.70
23560;DHT22;11958;50.836;4.438;2023-08-12T06:15:20;20.80;97.10
23560;DHT22;11958;50.836;4.438;2023-08-12T06:17:46;20.80;97.70
23560;DHT22;11958;50.836;4.438;2023-08-12T06:20:12;20.70;97.90
23560;DHT22;11958;50.836;4.438;2023-08-12T06:22:38;20.60;98.10
23560;DHT22;11958;50.836;4.438;2023-08-12T06:25:04;20.90;96.90
23560;DHT22;11958;50.836;4.438;2023-08-12T06:27:29;21.00;95.30
23560;DHT22;11958;50.836;4.438;2023-08-12T06:29:55;20.70;97.20
23560;DHT22;11958;50.836;4.438;2023-08-12T06:32:21;20.60;98.30
23560;DHT22;11958;50.836;4.438;2023-08-12T06:34:46;20.90;96.40
23560;DHT22;11958;50.836;4.438;2023-08-12T06:37:12;20.80;97.40
23560;DHT22;11958;50.836;4.438;2023-08-12T06:39:38;20.90;98.10
23560;DHT22;11958;50.836;4.438;2023-08-12T06:42:03;21.00;96.20
23560;DHT22;11958;50.836;4.438;2023-08-12T06:44:30;20.70;97.50
23560;DHT22;11958;50.836;4.438;2023-08-12T06:46:55;20.70;99.00
23560;DHT22;11958;50.836;4.438;2023-08-12T06:49:21;20.70;98.90
23560;DHT22;11958;50.836;4.438;2023-08-12T06:51:46;20.90;98.00
23560;DHT22;11958;50.836;4.438;2023-08-12T06:54:12;20.90;96.40
23560;DHT22;11958;50.836;4.438;2023-08-12T06:56:38;21.10;96.40
23560;DHT22;11958;50.836;4.438;2023-08-12T06:59:04;21.00;96.20
23560;DHT22;11958;50.836;4.438;2023-08-12T07:01:29;21.10;96.30
23560;DHT22;11958;50.836;4.438;2023-08-12T07:03:55;21.10;95.50
23560;DHT22;11958;50.836;4.438;2023-08-12T07:06:21;21.30;95.60
23560;DHT22;11958;50.836;4.438;2023-08-12T07:08:47;21.30;95.60
23560;DHT22;11958;50.836;4.438;2023-08-12T07:11:13;21.40;95.30
23560;DHT22;11958;50.836;4.438;2023-08-12T07:13:38;21.20;95.40
23560;DHT22;11958;50.836;4.438;2023-08-12T07:16:04;21.20;95.80
23560;DHT22;11958;50.836;4.438;2023-08-12T07:18:30;21.30;96.10
23560;DHT22;11958;50.836;4.438;2023-08-12T07:20:56;21.10;95.80
23560;DHT22;11958;50.836;4.438;2023-08-12T07:23:23;21.00;96.20
23560;DHT22;11958;50.836;4.438;2023-08-12T07:25:49;21.10;95.90
23560;DHT22;11958;50.836;4.438;2023-08-12T07:28:15;21.00;94.90
23560;DHT22;11958;50.836;4.438;2023-08-12T07:30:41;20.50;95.70
23560;DHT22;11958;50.836;4.438;2023-08-12T07:33:07;20.30;95.80
23560;DHT22;11958;50.836;4.438;2023-08-12T07:35:33;20.20;95.90
23560;DHT22;11958;50.836;4.438;2023-08-12T07:38:09;20.10;96.50
23560;DHT22;11958;50.836;4.438;2023-08-12T07:40:35;20.20;96.70
23560;DHT22;11958;50.836;4.438;2023-08-12T07:43:00;20.00;96.30
23560;DHT22;11958;50.836;4.438;2023-08-12T07:45:26;20.20;97.10
23560;DHT22;11958;50.836;4.438;2023-08-12T07:47:52;20.50;95.80
23560;DHT22;11958;50.836;4.438;2023-08-12T07:50:18;20.50;94.40
23560;DHT22;11958;50.836;4.438;2023-08-12T07:52:44;20.40;93.60
23560;DHT22;11958;50.836;4.438;2023-08-12T07:55:09;20.20;94.10
23560;DHT22;11958;50.836;4.438;2023-08-12T07:57:35;20.30;93.80
23560;DHT22;11958;50.836;4.438;2023-08-12T08:00:01;20.30;94.80
23560;DHT22;11958;50.836;4.438;2023-08-12T08:02:26;20.50;92.00
23560;DHT22;11958;50.836;4.438;2023-08-12T08:04:52;20.40;93.70
23560;DHT22;11958;50.836;4.438;2023-08-12T08:07:18;20.40;93.00
23560;DHT22;11958;50.836;4.438;2023-08-12T08:09:44;20.90;91.90
23560;DHT22;11958;50.836;4.438;2023-08-12T08:12:10;21.10;90.70
23560;DHT22;11958;50.836;4.438;2023-08-12T08:14:36;20.80;91.60
23560;DHT22;11958;50.836;4.438;2023-08-12T08:17:02;20.80;91.70
23560;DHT22;11958;50.836;4.438;2023-08-12T08:19:29;20.90;90.70
23560;DHT22;11958;50.836;4.438;2023-08-12T08:21:54;21.00;90.30
23560;DHT22;11958;50.836;4.438;2023-08-12T08:24:20;21.00;90.40
23560;DHT22;11958;50.836;4.438;2023-08-12T08:26:46;21.00;90.00
23560;DHT22;11958;50.836;4.438;2023-08-12T08:29:12;20.60;90.40
23560;DHT22;11958;50.836;4.438;2023-08-12T08:31:38;20.50;91.10
23560;DHT22;11958;50.836;4.438;2023-08-12T08:34:04;20.40;92.80
23560;DHT22;11958;50.836;4.438;2023-08-12T08:36:30;20.80;92.30
23560;DHT22;11958;50.836;4.438;2023-08-12T08:38:56;21.20;90.60
23560;DHT22;11958;50.836;4.438;2023-08-12T08:41:22;21.30;90.00
23560;DHT22;11958;50.836;4.438;2023-08-12T08:43:49;21.60;87.90
23560;DHT22;11958;50.836;4.438;2023-08-12T08:46:15;21.40;87.70
23560;DHT22;11958;50.836;4.438;2023-08-12T08:48:45;21.40;88.10
23560;DHT22;11958;50.836;4.438;2023-08-12T08:51:12;21.30;86.50
23560;DHT22;11958;50.836;4.438;2023-08-12T08:53:38;21.50;87.50
23560;DHT22;11958;50.836;4.438;2023-08-12T08:56:08;21.60;86.40
23560;DHT22;11958;50.836;4.438;2023-08-12T08:58:38;21.70;85.10
23560;DHT22;11958;50.836;4.438;2023-08-12T09:01:05;21.50;85.40
23560;DHT22;11958;50.836;4.438;2023-08-12T09:03:33;21.30;85.00
23560;DHT22;11958;50.836;4.438;2023-08-12T09:06:00;21.40;84.60
23560;DHT22;11958;50.836;4.438;2023-08-12T09:08:27;21.30;84.50
23560;DHT22;11958;50.836;4.438;2023-08-12T09:10:55;21.30;85.90
23560;DHT22;11958;50.836;4.438;2023-08-12T09:13:22;21.60;84.20
23560;DHT22;11958;50.836;4.438;2023-08-12T09:15:47;22.10;84.50
23560;DHT22;11958;50.836;4.438;2023-08-12T09:18:13;22.20;81.90
23560;DHT22;11958;50.836;4.438;2023-08-12T09:20:41;22.40;81.00
23560;DHT22;11958;50.836;4.438;2023-08-12T09:23:08;22.50;80.10
23560;DHT22;11958;50.836;4.438;2023-08-12T09:25:41;22.40;78.70
23560;DHT22;11958;50.836;4.438;2023-08-12T09:28:09;22.30;78.30
23560;DHT22;11958;50.836;4.438;2023-08-12T09:30:35;22.70;78.60
23560;DHT22;11958;50.836;4.438;2023-08-12T09:33:03;22.80;78.40
23560;DHT22;11958;50.836;4.438;2023-08-12T09:35:40;22.80;76.90
23560;DHT22;11958;50.836;4.438;2023-08-12T09:38:13;22.40;76.00
23560;DHT22;11958;50.836;4.438;2023-08-12T09:40:39;22.10;76.60
23560;DHT22;11958;50.836;4.438;2023-08-12T09:43:05;22.00;74.70
23560;DHT22;11958;50.836;4.438;2023-08-12T09:45:34;21.90;78.90
23560;DHT22;11958;50.836;4.438;2023-08-12T09:48:00;22.20;79.00
23560;DHT22;11958;50.836;4.438;2023-08-12T09:50:29;22.00;77.30
23560;DHT22;11958;50.836;4.438;2023-08-12T09:52:56;21.80;77.00
23560;DHT22;11958;50.836;4.438;2023-08-12T09:55:24;21.60;80.50
23560;DHT22;11958;50.836;4.438;2023-08-12T09:57:54;22.20;80.00
23560;DHT22;11958;50.836;4.438;2023-08-12T10:00:22;22.10;79.00
23560;DHT22;11958;50.836;4.438;2023-08-12T10:02:50;22.00;79.90
23560;DHT22;11958;50.836;4.438;2023-08-12T10:05:28;22.10;80.10
23560;DHT22;11958;50.836;4.438;2023-08-12T10:07:54;22.20;79.20
23560;DHT22;11958;50.836;4.438;2023-08-12T10:10:21;22.40;78.20
23560;DHT22;11958;50.836;4.438;2023-08-12T10:12:50;22.30;76.90
23560;DHT22;11958;50.836;4.438;2023-08-12T10:15:17;22.20;77.30
23560;DHT22;11958;50.836;4.438;2023-08-12T10:17:43;22.30;77.60
23560;DHT22;11958;50.836;4.438;2023-08-12T10:20:13;22.20;74.10
23560;DHT22;11958;50.836;4.438;2023-08-12T10:22:39;22.60;75.70
23560;DHT22;11958;50.836;4.438;2023-08-12T10:25:07;22.70;75.70
23560;DHT22;11958;50.836;4.438;2023-08-12T10:27:37;22.70;76.10
23560;DHT22;11958;50.836;4.438;2023-08-12T10:30:06;23.30;74.90
23560;DHT22;11958;50.836;4.438;2023-08-12T10:32:33;23.20;74.20
23560;DHT22;11958;50.836;4.438;2023-08-12T10:35:00;23.00;73.80
23560;DHT22;11958;50.836;4.438;2023-08-12T10:37:26;23.30;75.10
23560;DHT22;11958;50.836;4.438;2023-08-12T10:39:53;23.50;75.10
23560;DHT22;11958;50.836;4.438;2023-08-12T10:42:47;23.40;73.50
23560;DHT22;11958;50.836;4.438;2023-08-12T10:45:15;23.40;74.60
23560;DHT22;11958;50.836;4.438;2023-08-12T10:47:43;23.10;74.90
23560;DHT22;11958;50.836;4.438;2023-08-12T10:50:24;23.50;76.10
23560;DHT22;11958;50.836;4.438;2023-08-12T10:52:53;23.60;74.00
23560;DHT22;11958;50.836;4.438;2023-08-12T10:55:21;23.70;73.40
23560;DHT22;11958;50.836;4.438;2023-08-12T10:57:49;23.70;73.10
23560;DHT22;11958;50.836;4.438;2023-08-12T11:00:19;23.40;72.00
23560;DHT22;11958;50.836;4.438;2023-08-12T11:02:55;23.50;69.60
23560;DHT22;11958;50.836;4.438;2023-08-12T11:05:22;23.10;70.20
23560;DHT22;11958;50.836;4.438;2023-08-12T11:07:56;22.70;72.80
23560;DHT22;11958;50.836;4.438;2023-08-12T11:10:23;23.00;73.90
23560;DHT22;11958;50.836;4.438;2023-08-12T11:15:18;22.70;76.40
23560;DHT22;11958;50.836;4.438;2023-08-12T11:17:46;22.50;75.80
23560;DHT22;11958;50.836;4.438;2023-08-12T11:20:13;22.90;71.20
23560;DHT22;11958;50.836;4.438;2023-08-12T11:22:40;23.10;74.40
23560;DHT22;11958;50.836;4.438;2023-08-12T11:25:08;23.00;69.40
23560;DHT22;11958;50.836;4.438;2023-08-12T11:27:42;23.20;72.10
23560;DHT22;11958;50.836;4.438;2023-08-12T11:30:09;23.70;69.90
23560;DHT22;11958;50.836;4.438;2023-08-12T11:32:37;23.60;73.30
23560;DHT22;11958;50.836;4.438;2023-08-12T11:35:04;23.90;67.60
23560;DHT22;11958;50.836;4.438;2023-08-12T11:37:31;24.30;69.00
23560;DHT22;11958;50.836;4.438;2023-08-12T11:39:57;23.80;69.30
23560;DHT22;11958;50.836;4.438;2023-08-12T11:42:23;24.00;66.70
23560;DHT22;11958;50.836;4.438;2023-08-12T11:44:48;23.80;66.00
23560;DHT22;11958;50.836;4.438;2023-08-12T11:47:14;23.80;63.70
23560;DHT22;11958;50.836;4.438;2023-08-12T11:49:40;23.90;65.70
23560;DHT22;11958;50.836;4.438;2023-08-12T11:52:08;23.90;65.20
23560;DHT22;11958;50.836;4.438;2023-08-12T11:54:34;24.20;61.90
23560;DHT22;11958;50.836;4.438;2023-08-12T11:57:00;24.20;62.90
23560;DHT22;11958;50.836;4.438;2023-08-12T11:59:26;24.60;62.90
23560;DHT22;11958;50.836;4.438;2023-08-12T12:01:54;24.50;61.70
23560;DHT22;11958;50.836;4.438;2023-08-12T12:04:21;24.60;61.80
23560;DHT22;11958;50.836;4.438;2023-08-12T12:06:47;25.00;62.80
23560;DHT22;11958;50.836;4.438;2023-08-12T12:09:13;25.00;59.60
23560;DHT22;11958;50.836;4.438;2023-08-12T12:11:42;25.10;61.70
23560;DHT22;11958;50.836;4.438;2023-08-12T12:14:08;25.30;60.40
23560;DHT22;11958;50.836;4.438;2023-08-12T12:19:03;25.40;58.50
23560;DHT22;11958;50.836;4.438;2023-08-12T12:21:39;27.10;51.30
23560;DHT22;11958;50.836;4.438;2023-08-12T12:24:05;28.50;50.70
23560;DHT22;11958;50.836;4.438;2023-08-12T12:26:32;28.80;49.00
23560;DHT22;11958;50.836;4.438;2023-08-12T12:28:58;29.70;46.30
23560;DHT22;11958;50.836;4.438;2023-08-12T12:31:23;30.20;43.40
23560;DHT22;11958;50.836;4.438;2023-08-12T12:33:49;31.00;42.70
23560;DHT22;11958;50.836;4.438;2023-08-12T12:36:15;30.50;41.00
23560;DHT22;11958;50.836;4.438;2023-08-12T12:38:40;31.60;41.90
23560;DHT22;11958;50.836;4.438;2023-08-12T12:41:06;32.40;39.10
23560;DHT22;11958;50.836;4.438;2023-08-12T12:43:31;33.00;36.30
23560;DHT22;11958;50.836;4.438;2023-08-12T12:45:57;33.20;35.70
23560;DHT22;11958;50.836;4.438;2023-08-12T12:48:23;32.30;36.90
23560;DHT22;11958;50.836;4.438;2023-08-12T12:50:48;31.20;39.60
23560;DHT22;11958;50.836;4.438;2023-08-12T12:53:14;30.60;38.60
23560;DHT22;11958;50.836;4.438;2023-08-12T12:55:40;28.80;42.40
23560;DHT22;11958;50.836;4.438;2023-08-12T12:58:05;28.60;41.40
23560;DHT22;11958;50.836;4.438;2023-08-12T13:00:31;29.00;41.50
23560;DHT22;11958;50.836;4.438;2023-08-12T13:02:59;30.50;39.40
23560;DHT22;11958;50.836;4.438;2023-08-12T13:05:25;31.80;38.30
23560;DHT22;11958;50.836;4.438;2023-08-12T13:07:51;31.80;37.00
23560;DHT22;11958;50.836;4.438;2023-08-12T13:10:16;31.40;37.80
23560;DHT22;11958;50.836;4.438;2023-08-12T13:12:42;30.70;38.60
23560;DHT22;11958;50.836;4.438;2023-08-12T13:15:08;29.30;39.20
23560;DHT22;11958;50.836;4.438;2023-08-12T13:17:34;28.70;42.90
23560;DHT22;11958;50.836;4.438;2023-08-12T13:19:59;28.60;43.50
23560;DHT22;11958;50.836;4.438;2023-08-12T13:22:25;30.70;39.60
23560;DHT22;11958;50.836;4.438;2023-08-12T13:24:50;32.30;38.10
23560;DHT22;11958;50.836;4.438;2023-08-12T13:27:16;32.70;36.40
23560;DHT22;11958;50.836;4.438;2023-08-12T13:29:43;32.20;32.80
23560;DHT22;11958;50.836;4.438;2023-08-12T13:32:08;32.60;33.20
23560;DHT22;11958;50.836;4.438;2023-08-12T13:34:34;32.50;34.50
23560;DHT22;11958;50.836;4.438;2023-08-12T13:37:00;33.20;34.90
23560;DHT22;11958;50.836;4.438;2023-08-12T13:39:25;33.40;33.00
23560;DHT22;11958;50.836;4.438;2023-08-12T13:41:51;32.40;35.70
23560;DHT22;11958;50.836;4.438;2023-08-12T13:44:17;33.20;33.90
23560;DHT22;11958;50.836;4.438;2023-08-12T13:46:43;33.10;32.80
23560;DHT22;11958;50.836;4.438;2023-08-12T13:49:08;32.90;32.70
23560;DHT22;11958;50.836;4.438;2023-08-12T13:51:34;32.30;35.20
23560;DHT22;11958;50.836;4.438;2023-08-12T13:54:00;33.10;33.60
23560;DHT22;11958;50.836;4.438;2023-08-12T13:56:25;33.30;34.70
23560;DHT22;11958;50.836;4.438;2023-08-12T13:58:51;31.70;33.90
23560;DHT22;11958;50.836;4.438;2023-08-12T14:01:16;31.00;35.30
23560;DHT22;11958;50.836;4.438;2023-08-12T14:03:42;30.50;36.70
23560;DHT22;11958;50.836;4.438;2023-08-12T14:06:08;29.20;38.60
23560;DHT22;11958;50.836;4.438;2023-08-12T14:08:33;28.90;42.10
23560;DHT22;11958;50.836;4.438;2023-08-12T14:10:59;28.90;41.90
23560;DHT22;11958;50.836;4.438;2023-08-12T14:13:25;29.20;40.60
23560;DHT22;11958;50.836;4.438;2023-08-12T14:15:52;29.90;38.70
23560;DHT22;11958;50.836;4.438;2023-08-12T14:18:18;29.60;39.00
23560;DHT22;11958;50.836;4.438;2023-08-12T14:20:43;29.10;39.90
23560;DHT22;11958;50.836;4.438;2023-08-12T14:23:09;28.50;42.40
23560;DHT22;11958;50.836;4.438;2023-08-12T14:25:35;29.90;37.90
23560;DHT22;11958;50.836;4.438;2023-08-12T14:28:01;31.50;35.50
23560;DHT22;11958;50.836;4.438;2023-08-12T14:30:26;32.20;34.20
23560;DHT22;11958;50.836;4.438;2023-08-12T14:32:53;32.00;34.80
23560;DHT22;11958;50.836;4.438;2023-08-12T14:35:19;31.40;32.90
23560;DHT22;11958;50.836;4.438;2023-08-12T14:37:46;31.00;35.30
23560;DHT22;11958;50.836;4.438;2023-08-12T14:40:12;29.90;35.10
23560;DHT22;11958;50.836;4.438;2023-08-12T14:42:37;29.50;36.20
23560;DHT22;11958;50.836;4.438;2023-08-12T14:45:06;29.60;35.10
23560;DHT22;11958;50.836;4.438;2023-08-12T14:47:31;30.30;33.80
23560;DHT22;11958;50.836;4.438;2023-08-12T14:49:57;30.90;35.60
23560;DHT22;11958;50.836;4.438;2023-08-12T14:52:23;31.40;32.10
23560;DHT22;11958;50.836;4.438;2023-08-12T14:54:49;30.60;36.10
23560;DHT22;11958;50.836;4.438;2023-08-12T14:57:15;30.20;33.40
23560;DHT22;11958;50.836;4.438;2023-08-12T14:59:41;29.80;36.20
23560;DHT22;11958;50.836;4.438;2023-08-12T15:02:06;30.70;35.80
23560;DHT22;11958;50.836;4.438;2023-08-12T15:04:34;29.80;35.70
23560;DHT22;11958;50.836;4.438;2023-08-12T15:07:00;29.30;38.20
23560;DHT22;11958;50.836;4.438;2023-08-12T15:09:26;28.60;39.40
23560;DHT22;11958;50.836;4.438;2023-08-12T15:11:52;27.90;40.50
23560;DHT22;11958;50.836;4.438;2023-08-12T15:14:17;27.30;39.90
23560;DHT22;11958;50.836;4.438;2023-08-12T15:16:43;26.80;41.80
23560;DHT22;11958;50.836;4.438;2023-08-12T15:19:09;26.50;41.60
23560;DHT22;11958;50.836;4.438;2023-08-12T15:21:34;26.40;40.30
23560;DHT22;11958;50.836;4.438;2023-08-12T15:24:00;26.00;41.90
23560;DHT22;11958;50.836;4.438;2023-08-12T15:26:26;26.30;44.50
23560;DHT22;11958;50.836;4.438;2023-08-12T15:28:51;26.10;43.10
23560;DHT22;11958;50.836;4.438;2023-08-12T15:31:17;25.80;47.60
23560;DHT22;11958;50.836;4.438;2023-08-12T15:33:43;26.10;47.00